Hlavní strana
METAR-TAF:

METAR-TAF

Letiště :

Bluefield, Západní Virginie, Spojené státy americké

zeměpisná šířka: 37-17-45N, zeměpisná délka: 081-12-28W, výška: 871 m

Aktuální stav počasí

Zpráva byla vytvořena před 50 minutami, v 13:52 UTC
Bezvětří
Teplota 21°C
Vlhkost vzduchu 78%
Tlak 1019 hPa
Viditelnost: 16.1 km
Jasno

METAR: KBLF 021352Z AUTO 00000KT 10SM CLR 21/17 A3008 RMK AO2 SLP153 T02110172

Čas: 10:42 (14:42 UTC)

Předpověď počasí

Zpráva byla vytvořena před 3 hodinami a 22 minutami, v 11:20 UTC
Předpověď platná od 02 v 12 UTC do 03 v 12 UTC
Západní vítr 4 kt
Viditelnost: 10 km
Polojasno ve výšce 5000 ft
Od 02 v 1600 UTC
Severní vítr 5 kt
Viditelnost: 10 km
Polojasno ve výšce 3500 ft
Od 03 v 0100 UTC
vítr z různých směrů 3 kt
Viditelnost: 10 km
Jasno

TAF: KBLF 021120Z 0212/0312 26004KT P6SM SCT050 FM021600 36005KT P6SM SCT035 FM030100 VRB03KT P6SM SKC

Stav a předpovědi počasí z více než 4 000 letišť (zprávy METAR a TAF).

Červené a žluté tečky na mapě představují dostupné meteorologické stanice.

Když kurzor umístíte na tečku, zobrazí se název stanice.

Pak kliknutím zobrazíte stav a předpověď počasí.

Chcete-li změnit mapu, kliknutím na zelené tlačítko se znaménkem +mapu přiblížíte, kliknutím na zelené tlačítko se znaménkem – mapu oddálíte a kliknutím na zelené šipky přejdete na sousední mapy.


METAR-TAF: